sensor_id;sensor_type;location;lat;lon;timestamp;P1;durP1;ratioP1;P2;durP2;ratioP2
13421;SDS011;6782;55.904;13.396;2023-07-16T00:00:56;2.80;;;2.60;;
13421;SDS011;6782;55.904;13.396;2023-07-16T00:03:43;4.68;;;2.70;;
13421;SDS011;6782;55.904;13.396;2023-07-16T00:06:32;2.38;;;2.17;;
13421;SDS011;6782;55.904;13.396;2023-07-16T00:09:19;2.90;;;2.35;;
13421;SDS011;6782;55.904;13.396;2023-07-16T00:12:07;3.22;;;2.33;;
13421;SDS011;6782;55.904;13.396;2023-07-16T00:14:55;2.78;;;2.58;;
13421;SDS011;6782;55.904;13.396;2023-07-16T00:17:43;2.80;;;2.60;;
13421;SDS011;6782;55.904;13.396;2023-07-16T00:20:30;3.88;;;2.78;;
13421;SDS011;6782;55.904;13.396;2023-07-16T00:23:20;2.67;;;2.47;;
13421;SDS011;6782;55.904;13.396;2023-07-16T00:26:07;3.25;;;2.72;;
13421;SDS011;6782;55.904;13.396;2023-07-16T00:28:54;2.55;;;2.35;;
13421;SDS011;6782;55.904;13.396;2023-07-16T00:31:41;2.80;;;2.60;;
13421;SDS011;6782;55.904;13.396;2023-07-16T00:34:28;2.50;;;2.30;;
13421;SDS011;6782;55.904;13.396;2023-07-16T00:37:16;4.05;;;2.80;;
13421;SDS011;6782;55.904;13.396;2023-07-16T00:40:05;3.50;;;2.80;;
13421;SDS011;6782;55.904;13.396;2023-07-16T00:42:53;2.88;;;2.67;;
13421;SDS011;6782;55.904;13.396;2023-07-16T00:45:40;2.75;;;2.55;;
13421;SDS011;6782;55.904;13.396;2023-07-16T00:48:29;3.38;;;2.90;;
13421;SDS011;6782;55.904;13.396;2023-07-16T00:51:16;3.33;;;2.75;;
13421;SDS011;6782;55.904;13.396;2023-07-16T00:54:04;3.92;;;2.80;;
13421;SDS011;6782;55.904;13.396;2023-07-16T00:56:54;3.58;;;3.28;;
13421;SDS011;6782;55.904;13.396;2023-07-16T00:59:41;4.32;;;3.05;;
13421;SDS011;6782;55.904;13.396;2023-07-16T01:02:29;3.92;;;3.13;;
13421;SDS011;6782;55.904;13.396;2023-07-16T01:05:16;6.35;;;3.20;;
13421;SDS011;6782;55.904;13.396;2023-07-16T01:08:05;5.70;;;3.10;;
13421;SDS011;6782;55.904;13.396;2023-07-16T01:10:55;3.92;;;3.17;;
13421;SDS011;6782;55.904;13.396;2023-07-16T01:13:44;3.42;;;3.13;;
13421;SDS011;6782;55.904;13.396;2023-07-16T01:16:31;3.10;;;2.80;;
13421;SDS011;6782;55.904;13.396;2023-07-16T01:19:19;3.78;;;3.10;;
13421;SDS011;6782;55.904;13.396;2023-07-16T01:22:10;3.50;;;3.20;;
13421;SDS011;6782;55.904;13.396;2023-07-16T01:25:20;3.63;;;3.33;;
13421;SDS011;6782;55.904;13.396;2023-07-16T01:28:37;3.40;;;3.10;;
13421;SDS011;6782;55.904;13.396;2023-07-16T01:31:36;2.97;;;2.78;;
13421;SDS011;6782;55.904;13.396;2023-07-16T01:34:25;3.83;;;3.22;;
13421;SDS011;6782;55.904;13.396;2023-07-16T01:37:16;3.65;;;3.35;;
13421;SDS011;6782;55.904;13.396;2023-07-16T01:40:04;3.20;;;2.97;;
13421;SDS011;6782;55.904;13.396;2023-07-16T01:42:54;3.13;;;2.92;;
13421;SDS011;6782;55.904;13.396;2023-07-16T01:45:42;3.55;;;3.20;;
13421;SDS011;6782;55.904;13.396;2023-07-16T01:48:31;3.58;;;3.28;;
13421;SDS011;6782;55.904;13.396;2023-07-16T01:51:20;3.88;;;3.38;;
13421;SDS011;6782;55.904;13.396;2023-07-16T01:54:08;3.13;;;2.83;;
13421;SDS011;6782;55.904;13.396;2023-07-16T01:56:55;4.07;;;3.55;;
13421;SDS011;6782;55.904;13.396;2023-07-16T01:59:43;3.45;;;3.00;;
13421;SDS011;6782;55.904;13.396;2023-07-16T02:02:30;3.88;;;3.53;;
13421;SDS011;6782;55.904;13.396;2023-07-16T02:05:18;4.53;;;3.33;;
13421;SDS011;6782;55.904;13.396;2023-07-16T02:08:06;4.10;;;3.38;;
13421;SDS011;6782;55.904;13.396;2023-07-16T02:10:55;3.58;;;3.25;;
13421;SDS011;6782;55.904;13.396;2023-07-16T02:13:45;4.05;;;3.42;;
13421;SDS011;6782;55.904;13.396;2023-07-16T02:16:32;3.53;;;3.22;;
13421;SDS011;6782;55.904;13.396;2023-07-16T02:19:21;5.00;;;3.13;;
13421;SDS011;6782;55.904;13.396;2023-07-16T02:22:10;4.57;;;3.40;;
13421;SDS011;6782;55.904;13.396;2023-07-16T02:24:58;6.00;;;3.60;;
13421;SDS011;6782;55.904;13.396;2023-07-16T02:27:46;4.78;;;3.58;;
13421;SDS011;6782;55.904;13.396;2023-07-16T02:30:34;4.97;;;3.70;;
13421;SDS011;6782;55.904;13.396;2023-07-16T02:33:21;6.78;;;3.88;;
13421;SDS011;6782;55.904;13.396;2023-07-16T02:36:08;4.35;;;3.95;;
13421;SDS011;6782;55.904;13.396;2023-07-16T02:38:57;5.75;;;3.92;;
13421;SDS011;6782;55.904;13.396;2023-07-16T02:41:44;5.50;;;4.70;;
13421;SDS011;6782;55.904;13.396;2023-07-16T02:44:32;6.95;;;4.45;;
13421;SDS011;6782;55.904;13.396;2023-07-16T02:47:19;8.27;;;4.60;;
13421;SDS011;6782;55.904;13.396;2023-07-16T02:50:06;6.60;;;4.15;;
13421;SDS011;6782;55.904;13.396;2023-07-16T02:52:54;5.80;;;4.28;;
13421;SDS011;6782;55.904;13.396;2023-07-16T02:55:44;8.18;;;4.15;;
13421;SDS011;6782;55.904;13.396;2023-07-16T02:58:32;4.93;;;3.83;;
13421;SDS011;6782;55.904;13.396;2023-07-16T03:01:19;5.18;;;3.97;;
13421;SDS011;6782;55.904;13.396;2023-07-16T03:04:07;4.43;;;3.90;;
13421;SDS011;6782;55.904;13.396;2023-07-16T03:06:55;5.53;;;3.63;;
13421;SDS011;6782;55.904;13.396;2023-07-16T03:09:43;3.78;;;3.22;;
13421;SDS011;6782;55.904;13.396;2023-07-16T03:12:31;3.55;;;3.17;;
13421;SDS011;6782;55.904;13.396;2023-07-16T03:15:19;5.30;;;3.45;;
13421;SDS011;6782;55.904;13.396;2023-07-16T03:18:06;3.35;;;2.95;;
13421;SDS011;6782;55.904;13.396;2023-07-16T03:20:53;3.20;;;2.90;;
13421;SDS011;6782;55.904;13.396;2023-07-16T03:23:41;3.05;;;2.75;;
13421;SDS011;6782;55.904;13.396;2023-07-16T03:26:28;4.78;;;2.88;;
13421;SDS011;6782;55.904;13.396;2023-07-16T03:29:17;2.72;;;2.53;;
13421;SDS011;6782;55.904;13.396;2023-07-16T03:32:04;4.15;;;2.53;;
13421;SDS011;6782;55.904;13.396;2023-07-16T03:34:52;3.22;;;2.58;;
13421;SDS011;6782;55.904;13.396;2023-07-16T03:37:39;2.90;;;2.70;;
13421;SDS011;6782;55.904;13.396;2023-07-16T03:40:27;3.20;;;2.80;;
13421;SDS011;6782;55.904;13.396;2023-07-16T03:43:14;2.97;;;2.78;;
13421;SDS011;6782;55.904;13.396;2023-07-16T03:46:03;4.95;;;2.70;;
13421;SDS011;6782;55.904;13.396;2023-07-16T03:48:53;2.92;;;2.70;;
13421;SDS011;6782;55.904;13.396;2023-07-16T03:51:40;2.63;;;2.42;;
13421;SDS011;6782;55.904;13.396;2023-07-16T03:54:27;2.60;;;2.40;;
13421;SDS011;6782;55.904;13.396;2023-07-16T03:57:14;3.63;;;2.00;;
13421;SDS011;6782;55.904;13.396;2023-07-16T04:00:02;2.00;;;1.90;;
13421;SDS011;6782;55.904;13.396;2023-07-16T04:02:53;2.28;;;2.08;;
13421;SDS011;6782;55.904;13.396;2023-07-16T04:05:40;2.72;;;1.63;;
13421;SDS011;6782;55.904;13.396;2023-07-16T04:08:27;3.00;;;1.83;;
13421;SDS011;6782;55.904;13.396;2023-07-16T04:11:14;4.75;;;2.17;;
13421;SDS011;6782;55.904;13.396;2023-07-16T04:14:01;2.67;;;1.75;;
13421;SDS011;6782;55.904;13.396;2023-07-16T04:16:49;2.13;;;2.00;;
13421;SDS011;6782;55.904;13.396;2023-07-16T04:19:38;3.95;;;1.88;;
13421;SDS011;6782;55.904;13.396;2023-07-16T04:22:25;4.68;;;1.90;;
13421;SDS011;6782;55.904;13.396;2023-07-16T04:25:12;1.95;;;1.60;;
13421;SDS011;6782;55.904;13.396;2023-07-16T04:28:00;4.00;;;1.90;;
13421;SDS011;6782;55.904;13.396;2023-07-16T04:30:49;4.22;;;1.70;;
13421;SDS011;6782;55.904;13.396;2023-07-16T04:33:36;4.15;;;1.77;;
13421;SDS011;6782;55.904;13.396;2023-07-16T04:36:25;3.75;;;1.75;;
13421;SDS011;6782;55.904;13.396;2023-07-16T04:39:12;3.67;;;2.00;;
13421;SDS011;6782;55.904;13.396;2023-07-16T04:41:59;1.80;;;1.33;;
13421;SDS011;6782;55.904;13.396;2023-07-16T04:44:47;2.97;;;1.73;;
13421;SDS011;6782;55.904;13.396;2023-07-16T04:47:34;1.73;;;1.55;;
13421;SDS011;6782;55.904;13.396;2023-07-16T04:50:22;3.03;;;2.00;;
13421;SDS011;6782;55.904;13.396;2023-07-16T04:53:11;1.90;;;1.73;;
13421;SDS011;6782;55.904;13.396;2023-07-16T04:55:58;2.85;;;1.80;;
13421;SDS011;6782;55.904;13.396;2023-07-16T04:58:46;1.50;;;1.40;;
13421;SDS011;6782;55.904;13.396;2023-07-16T05:01:33;1.83;;;1.63;;
13421;SDS011;6782;55.904;13.396;2023-07-16T05:04:21;2.33;;;1.42;;
13421;SDS011;6782;55.904;13.396;2023-07-16T05:07:08;2.75;;;1.60;;
13421;SDS011;6782;55.904;13.396;2023-07-16T05:09:56;2.17;;;1.75;;
13421;SDS011;6782;55.904;13.396;2023-07-16T05:12:44;2.03;;;1.60;;
13421;SDS011;6782;55.904;13.396;2023-07-16T05:15:32;2.13;;;1.65;;
13421;SDS011;6782;55.904;13.396;2023-07-16T05:18:19;2.03;;;1.70;;
13421;SDS011;6782;55.904;13.396;2023-07-16T05:21:07;1.77;;;1.67;;
13421;SDS011;6782;55.904;13.396;2023-07-16T05:23:55;3.58;;;1.63;;
13421;SDS011;6782;55.904;13.396;2023-07-16T05:26:44;3.58;;;1.90;;
13421;SDS011;6782;55.904;13.396;2023-07-16T05:29:33;3.70;;;1.58;;
13421;SDS011;6782;55.904;13.396;2023-07-16T05:32:21;3.22;;;1.55;;
13421;SDS011;6782;55.904;13.396;2023-07-16T05:35:08;2.17;;;1.60;;
13421;SDS011;6782;55.904;13.396;2023-07-16T05:37:58;1.90;;;1.67;;
13421;SDS011;6782;55.904;13.396;2023-07-16T05:40:45;2.22;;;1.70;;
13421;SDS011;6782;55.904;13.396;2023-07-16T05:43:34;2.03;;;1.75;;
13421;SDS011;6782;55.904;13.396;2023-07-16T05:46:22;2.45;;;1.70;;
13421;SDS011;6782;55.904;13.396;2023-07-16T05:49:10;2.00;;;1.80;;
13421;SDS011;6782;55.904;13.396;2023-07-16T05:51:58;1.70;;;1.60;;
13421;SDS011;6782;55.904;13.396;2023-07-16T05:54:45;1.92;;;1.70;;
13421;SDS011;6782;55.904;13.396;2023-07-16T05:57:32;2.95;;;1.77;;
13421;SDS011;6782;55.904;13.396;2023-07-16T06:00:22;2.33;;;1.90;;
13421;SDS011;6782;55.904;13.396;2023-07-16T06:03:11;3.05;;;1.73;;
13421;SDS011;6782;55.904;13.396;2023-07-16T06:05:59;3.75;;;1.90;;
13421;SDS011;6782;55.904;13.396;2023-07-16T06:08:46;1.98;;;1.67;;
13421;SDS011;6782;55.904;13.396;2023-07-16T06:11:34;2.97;;;1.77;;
13421;SDS011;6782;55.904;13.396;2023-07-16T06:14:22;3.50;;;1.58;;
13421;SDS011;6782;55.904;13.396;2023-07-16T06:17:11;3.50;;;1.95;;
13421;SDS011;6782;55.904;13.396;2023-07-16T06:19:58;3.60;;;1.88;;
13421;SDS011;6782;55.904;13.396;2023-07-16T06:22:46;4.00;;;2.05;;
13421;SDS011;6782;55.904;13.396;2023-07-16T06:25:34;3.15;;;2.00;;
13421;SDS011;6782;55.904;13.396;2023-07-16T06:28:22;2.33;;;1.85;;
13421;SDS011;6782;55.904;13.396;2023-07-16T06:31:10;4.38;;;1.98;;
13421;SDS011;6782;55.904;13.396;2023-07-16T06:33:59;2.35;;;1.95;;
13421;SDS011;6782;55.904;13.396;2023-07-16T06:36:46;3.78;;;1.83;;
13421;SDS011;6782;55.904;13.396;2023-07-16T06:39:34;3.22;;;1.80;;
13421;SDS011;6782;55.904;13.396;2023-07-16T06:42:22;3.25;;;2.03;;
13421;SDS011;6782;55.904;13.396;2023-07-16T06:45:09;3.03;;;2.10;;
13421;SDS011;6782;55.904;13.396;2023-07-16T06:47:57;3.58;;;1.77;;
13421;SDS011;6782;55.904;13.396;2023-07-16T06:50:46;4.20;;;2.13;;
13421;SDS011;6782;55.904;13.396;2023-07-16T06:53:35;3.20;;;1.70;;
13421;SDS011;6782;55.904;13.396;2023-07-16T06:56:23;4.80;;;2.00;;
13421;SDS011;6782;55.904;13.396;2023-07-16T06:59:10;2.88;;;2.08;;
13421;SDS011;6782;55.904;13.396;2023-07-16T07:01:57;3.55;;;2.40;;
13421;SDS011;6782;55.904;13.396;2023-07-16T07:04:44;3.20;;;1.80;;
13421;SDS011;6782;55.904;13.396;2023-07-16T07:07:33;4.68;;;1.80;;
13421;SDS011;6782;55.904;13.396;2023-07-16T07:10:20;3.13;;;1.75;;
13421;SDS011;6782;55.904;13.396;2023-07-16T07:13:07;4.00;;;2.10;;
13421;SDS011;6782;55.904;13.396;2023-07-16T07:15:55;3.30;;;2.10;;
13421;SDS011;6782;55.904;13.396;2023-07-16T07:18:42;2.55;;;1.95;;
13421;SDS011;6782;55.904;13.396;2023-07-16T07:21:29;4.13;;;1.95;;
13421;SDS011;6782;55.904;13.396;2023-07-16T07:24:18;4.22;;;2.13;;
13421;SDS011;6782;55.904;13.396;2023-07-16T07:27:05;3.55;;;2.28;;
13421;SDS011;6782;55.904;13.396;2023-07-16T07:29:53;4.20;;;2.38;;
13421;SDS011;6782;55.904;13.396;2023-07-16T07:32:41;4.20;;;2.38;;
13421;SDS011;6782;55.904;13.396;2023-07-16T07:35:28;4.25;;;2.28;;
13421;SDS011;6782;55.904;13.396;2023-07-16T07:38:15;2.75;;;2.30;;
13421;SDS011;6782;55.904;13.396;2023-07-16T07:41:06;4.45;;;2.50;;
13421;SDS011;6782;55.904;13.396;2023-07-16T07:43:53;2.58;;;2.25;;
13421;SDS011;6782;55.904;13.396;2023-07-16T07:46:40;4.65;;;2.40;;
13421;SDS011;6782;55.904;13.396;2023-07-16T07:49:27;3.00;;;2.30;;
13421;SDS011;6782;55.904;13.396;2023-07-16T07:52:15;6.80;;;2.10;;
13421;SDS011;6782;55.904;13.396;2023-07-16T07:55:03;4.70;;;2.40;;
13421;SDS011;6782;55.904;13.396;2023-07-16T07:57:55;3.80;;;2.50;;
13421;SDS011;6782;55.904;13.396;2023-07-16T08:00:42;6.28;;;3.10;;
13421;SDS011;6782;55.904;13.396;2023-07-16T08:03:30;4.07;;;2.95;;
13421;SDS011;6782;55.904;13.396;2023-07-16T08:06:20;5.47;;;2.95;;
13421;SDS011;6782;55.904;13.396;2023-07-16T08:09:10;3.60;;;2.40;;
13421;SDS011;6782;55.904;13.396;2023-07-16T08:11:57;4.88;;;2.70;;
13421;SDS011;6782;55.904;13.396;2023-07-16T08:14:47;5.72;;;2.92;;
13421;SDS011;6782;55.904;13.396;2023-07-16T08:17:35;5.38;;;3.10;;
13421;SDS011;6782;55.904;13.396;2023-07-16T08:20:23;8.93;;;3.70;;
13421;SDS011;6782;55.904;13.396;2023-07-16T08:23:11;5.38;;;3.20;;
13421;SDS011;6782;55.904;13.396;2023-07-16T08:25:59;4.45;;;3.38;;
13421;SDS011;6782;55.904;13.396;2023-07-16T08:28:47;5.93;;;3.20;;
13421;SDS011;6782;55.904;13.396;2023-07-16T08:31:36;5.70;;;3.00;;
13421;SDS011;6782;55.904;13.396;2023-07-16T08:34:24;4.68;;;2.90;;
13421;SDS011;6782;55.904;13.396;2023-07-16T08:37:13;6.72;;;3.33;;
13421;SDS011;6782;55.904;13.396;2023-07-16T08:40:00;5.22;;;3.15;;
13421;SDS011;6782;55.904;13.396;2023-07-16T08:42:49;5.30;;;2.95;;
13421;SDS011;6782;55.904;13.396;2023-07-16T08:45:38;5.60;;;3.30;;
13421;SDS011;6782;55.904;13.396;2023-07-16T08:48:29;5.18;;;3.22;;
13421;SDS011;6782;55.904;13.396;2023-07-16T08:51:18;4.45;;;3.00;;
13421;SDS011;6782;55.904;13.396;2023-07-16T08:54:08;6.85;;;3.15;;
13421;SDS011;6782;55.904;13.396;2023-07-16T08:57:01;6.25;;;3.30;;
13421;SDS011;6782;55.904;13.396;2023-07-16T08:59:51;3.28;;;2.70;;
13421;SDS011;6782;55.904;13.396;2023-07-16T09:02:38;5.05;;;3.00;;
13421;SDS011;6782;55.904;13.396;2023-07-16T09:05:27;5.22;;;3.42;;
13421;SDS011;6782;55.904;13.396;2023-07-16T09:08:16;4.45;;;3.13;;
13421;SDS011;6782;55.904;13.396;2023-07-16T09:11:03;4.55;;;3.08;;
13421;SDS011;6782;55.904;13.396;2023-07-16T09:13:51;5.25;;;3.17;;
13421;SDS011;6782;55.904;13.396;2023-07-16T09:16:38;7.57;;;3.50;;
13421;SDS011;6782;55.904;13.396;2023-07-16T09:19:25;4.90;;;2.92;;
13421;SDS011;6782;55.904;13.396;2023-07-16T09:22:16;6.18;;;3.28;;
13421;SDS011;6782;55.904;13.396;2023-07-16T09:25:04;6.35;;;3.60;;
13421;SDS011;6782;55.904;13.396;2023-07-16T09:27:51;7.15;;;3.20;;
13421;SDS011;6782;55.904;13.396;2023-07-16T09:30:39;5.47;;;3.50;;
13421;SDS011;6782;55.904;13.396;2023-07-16T09:33:26;6.30;;;3.38;;
13421;SDS011;6782;55.904;13.396;2023-07-16T09:36:13;6.25;;;3.40;;
13421;SDS011;6782;55.904;13.396;2023-07-16T09:39:11;5.82;;;3.25;;
13421;SDS011;6782;55.904;13.396;2023-07-16T09:41:59;6.15;;;3.28;;
13421;SDS011;6782;55.904;13.396;2023-07-16T09:44:48;4.80;;;3.10;;
13421;SDS011;6782;55.904;13.396;2023-07-16T09:47:38;4.75;;;3.08;;
13421;SDS011;6782;55.904;13.396;2023-07-16T09:50:28;6.50;;;3.38;;
13421;SDS011;6782;55.904;13.396;2023-07-16T09:53:18;5.60;;;3.33;;
13421;SDS011;6782;55.904;13.396;2023-07-16T09:56:08;4.70;;;3.70;;
13421;SDS011;6782;55.904;13.396;2023-07-16T09:58:57;5.82;;;3.38;;
13421;SDS011;6782;55.904;13.396;2023-07-16T10:01:46;5.85;;;3.30;;
13421;SDS011;6782;55.904;13.396;2023-07-16T10:04:38;7.00;;;3.28;;
13421;SDS011;6782;55.904;13.396;2023-07-16T10:07:26;6.32;;;3.40;;
13421;SDS011;6782;55.904;13.396;2023-07-16T10:10:13;6.75;;;3.50;;
13421;SDS011;6782;55.904;13.396;2023-07-16T10:13:04;4.28;;;3.30;;
13421;SDS011;6782;55.904;13.396;2023-07-16T10:15:55;7.53;;;3.65;;
13421;SDS011;6782;55.904;13.396;2023-07-16T10:18:44;6.97;;;3.30;;
13421;SDS011;6782;55.904;13.396;2023-07-16T10:21:38;4.47;;;3.22;;
13421;SDS011;6782;55.904;13.396;2023-07-16T10:24:31;4.60;;;3.03;;
13421;SDS011;6782;55.904;13.396;2023-07-16T10:27:29;4.75;;;3.20;;
13421;SDS011;6782;55.904;13.396;2023-07-16T10:30:20;8.25;;;3.60;;
13421;SDS011;6782;55.904;13.396;2023-07-16T10:33:11;6.32;;;3.17;;
13421;SDS011;6782;55.904;13.396;2023-07-16T10:35:59;5.38;;;3.35;;
13421;SDS011;6782;55.904;13.396;2023-07-16T10:38:47;7.47;;;3.30;;
13421;SDS011;6782;55.904;13.396;2023-07-16T10:41:34;5.53;;;3.47;;
13421;SDS011;6782;55.904;13.396;2023-07-16T10:44:22;4.63;;;3.20;;
13421;SDS011;6782;55.904;13.396;2023-07-16T10:47:19;4.40;;;2.50;;
13421;SDS011;6782;55.904;13.396;2023-07-16T10:50:09;3.50;;;2.75;;
13421;SDS011;6782;55.904;13.396;2023-07-16T10:52:57;3.25;;;2.80;;
13421;SDS011;6782;55.904;13.396;2023-07-16T10:55:45;3.72;;;2.63;;
13421;SDS011;6782;55.904;13.396;2023-07-16T10:58:33;5.15;;;3.28;;
13421;SDS011;6782;55.904;13.396;2023-07-16T11:01:22;6.85;;;3.10;;
13421;SDS011;6782;55.904;13.396;2023-07-16T11:04:13;4.55;;;2.95;;
13421;SDS011;6782;55.904;13.396;2023-07-16T11:07:03;6.00;;;3.22;;
13421;SDS011;6782;55.904;13.396;2023-07-16T11:09:52;4.95;;;3.20;;
13421;SDS011;6782;55.904;13.396;2023-07-16T11:12:42;5.75;;;3.03;;
13421;SDS011;6782;55.904;13.396;2023-07-16T11:15:31;5.00;;;3.17;;
13421;SDS011;6782;55.904;13.396;2023-07-16T11:18:21;6.72;;;3.00;;
13421;SDS011;6782;55.904;13.396;2023-07-16T11:21:11;4.63;;;3.15;;
13421;SDS011;6782;55.904;13.396;2023-07-16T11:24:07;4.13;;;2.83;;
13421;SDS011;6782;55.904;13.396;2023-07-16T11:26:56;5.55;;;3.05;;
13421;SDS011;6782;55.904;13.396;2023-07-16T11:29:47;4.53;;;2.95;;
13421;SDS011;6782;55.904;13.396;2023-07-16T11:32:35;5.68;;;3.30;;
13421;SDS011;6782;55.904;13.396;2023-07-16T11:35:23;5.57;;;3.28;;
13421;SDS011;6782;55.904;13.396;2023-07-16T11:38:14;6.78;;;3.25;;
13421;SDS011;6782;55.904;13.396;2023-07-16T11:41:01;7.25;;;3.50;;
13421;SDS011;6782;55.904;13.396;2023-07-16T11:43:49;5.63;;;3.28;;
13421;SDS011;6782;55.904;13.396;2023-07-16T11:46:36;4.60;;;3.20;;
13421;SDS011;6782;55.904;13.396;2023-07-16T11:49:24;5.78;;;2.97;;
13421;SDS011;6782;55.904;13.396;2023-07-16T11:52:11;5.05;;;3.00;;
13421;SDS011;6782;55.904;13.396;2023-07-16T11:55:01;4.65;;;2.65;;
13421;SDS011;6782;55.904;13.396;2023-07-16T11:57:49;4.70;;;2.67;;
13421;SDS011;6782;55.904;13.396;2023-07-16T12:00:37;3.58;;;2.53;;
13421;SDS011;6782;55.904;13.396;2023-07-16T12:03:26;5.57;;;2.83;;
13421;SDS011;6782;55.904;13.396;2023-07-16T12:06:13;4.03;;;2.63;;
13421;SDS011;6782;55.904;13.396;2023-07-16T12:09:02;3.85;;;2.63;;
13421;SDS011;6782;55.904;13.396;2023-07-16T12:11:53;5.40;;;2.75;;
13421;SDS011;6782;55.904;13.396;2023-07-16T12:14:41;4.20;;;2.75;;
13421;SDS011;6782;55.904;13.396;2023-07-16T12:17:29;3.95;;;2.70;;
13421;SDS011;6782;55.904;13.396;2023-07-16T12:20:16;3.10;;;2.58;;
13421;SDS011;6782;55.904;13.396;2023-07-16T12:23:04;4.43;;;2.97;;
13421;SDS011;6782;55.904;13.396;2023-07-16T12:25:52;5.15;;;2.80;;
13421;SDS011;6782;55.904;13.396;2023-07-16T12:28:41;3.33;;;2.65;;
13421;SDS011;6782;55.904;13.396;2023-07-16T12:31:29;6.32;;;3.00;;
13421;SDS011;6782;55.904;13.396;2023-07-16T12:34:17;3.20;;;2.60;;
13421;SDS011;6782;55.904;13.396;2023-07-16T12:37:05;4.53;;;2.50;;
13421;SDS011;6782;55.904;13.396;2023-07-16T12:39:53;6.90;;;2.78;;
13421;SDS011;6782;55.904;13.396;2023-07-16T12:42:40;4.65;;;2.95;;
13421;SDS011;6782;55.904;13.396;2023-07-16T12:45:29;4.78;;;3.08;;
13421;SDS011;6782;55.904;13.396;2023-07-16T12:48:17;3.45;;;2.80;;
13421;SDS011;6782;55.904;13.396;2023-07-16T12:51:04;4.32;;;2.92;;
13421;SDS011;6782;55.904;13.396;2023-07-16T12:53:52;3.75;;;2.85;;
13421;SDS011;6782;55.904;13.396;2023-07-16T12:56:39;3.95;;;2.65;;
13421;SDS011;6782;55.904;13.396;2023-07-16T12:59:27;4.05;;;2.85;;
13421;SDS011;6782;55.904;13.396;2023-07-16T13:02:17;3.80;;;3.05;;
13421;SDS011;6782;55.904;13.396;2023-07-16T13:05:06;4.10;;;3.05;;
13421;SDS011;6782;55.904;13.396;2023-07-16T13:07:54;5.18;;;3.33;;
13421;SDS011;6782;55.904;13.396;2023-07-16T13:10:42;4.55;;;3.00;;
13421;SDS011;6782;55.904;13.396;2023-07-16T13:13:29;5.00;;;2.90;;
13421;SDS011;6782;55.904;13.396;2023-07-16T13:16:17;4.65;;;2.85;;
13421;SDS011;6782;55.904;13.396;2023-07-16T13:19:06;6.40;;;2.90;;
13421;SDS011;6782;55.904;13.396;2023-07-16T13:21:53;3.65;;;2.65;;
13421;SDS011;6782;55.904;13.396;2023-07-16T13:24:40;4.53;;;2.80;;
13421;SDS011;6782;55.904;13.396;2023-07-16T13:27:27;4.18;;;2.90;;
13421;SDS011;6782;55.904;13.396;2023-07-16T13:30:14;4.95;;;2.85;;
13421;SDS011;6782;55.904;13.396;2023-07-16T13:33:02;3.22;;;2.60;;
13421;SDS011;6782;55.904;13.396;2023-07-16T13:35:51;3.92;;;2.92;;
13421;SDS011;6782;55.904;13.396;2023-07-16T13:38:38;4.68;;;3.00;;
13421;SDS011;6782;55.904;13.396;2023-07-16T13:41:26;3.65;;;2.55;;
13421;SDS011;6782;55.904;13.396;2023-07-16T13:44:13;2.97;;;2.42;;
13421;SDS011;6782;55.904;13.396;2023-07-16T13:47:00;5.07;;;2.50;;
13421;SDS011;6782;55.904;13.396;2023-07-16T13:49:47;4.05;;;2.22;;
13421;SDS011;6782;55.904;13.396;2023-07-16T13:52:36;5.03;;;2.78;;
13421;SDS011;6782;55.904;13.396;2023-07-16T13:55:23;4.72;;;2.38;;
13421;SDS011;6782;55.904;13.396;2023-07-16T13:58:11;4.20;;;2.17;;
13421;SDS011;6782;55.904;13.396;2023-07-16T14:01:00;3.85;;;2.78;;
13421;SDS011;6782;55.904;13.396;2023-07-16T14:03:47;4.00;;;2.78;;
13421;SDS011;6782;55.904;13.396;2023-07-16T14:06:34;3.25;;;2.95;;
13421;SDS011;6782;55.904;13.396;2023-07-16T14:09:22;3.45;;;2.53;;
13421;SDS011;6782;55.904;13.396;2023-07-16T14:12:10;3.33;;;2.42;;
13421;SDS011;6782;55.904;13.396;2023-07-16T14:14:57;4.18;;;2.50;;
13421;SDS011;6782;55.904;13.396;2023-07-16T14:17:45;3.35;;;2.35;;
13421;SDS011;6782;55.904;13.396;2023-07-16T14:20:32;3.20;;;2.30;;
13421;SDS011;6782;55.904;13.396;2023-07-16T14:23:19;6.32;;;3.10;;
13421;SDS011;6782;55.904;13.396;2023-07-16T14:26:08;4.38;;;2.40;;
13421;SDS011;6782;55.904;13.396;2023-07-16T14:28:56;8.90;;;2.60;;
13421;SDS011;6782;55.904;13.396;2023-07-16T14:31:43;4.15;;;2.45;;
13421;SDS011;6782;55.904;13.396;2023-07-16T14:34:30;3.80;;;2.22;;
13421;SDS011;6782;55.904;13.396;2023-07-16T14:37:18;3.67;;;2.70;;
13421;SDS011;6782;55.904;13.396;2023-07-16T14:40:05;4.63;;;2.50;;
13421;SDS011;6782;55.904;13.396;2023-07-16T14:42:56;4.38;;;2.45;;
13421;SDS011;6782;55.904;13.396;2023-07-16T14:45:43;4.07;;;2.45;;
13421;SDS011;6782;55.904;13.396;2023-07-16T14:48:30;4.35;;;2.53;;
13421;SDS011;6782;55.904;13.396;2023-07-16T14:51:19;4.60;;;2.40;;
13421;SDS011;6782;55.904;13.396;2023-07-16T14:54:06;5.63;;;2.83;;
13421;SDS011;6782;55.904;13.396;2023-07-16T14:56:53;4.90;;;3.03;;
13421;SDS011;6782;55.904;13.396;2023-07-16T14:59:42;4.22;;;2.80;;
13421;SDS011;6782;55.904;13.396;2023-07-16T15:02:30;3.75;;;2.15;;
13421;SDS011;6782;55.904;13.396;2023-07-16T15:05:17;4.70;;;2.53;;
13421;SDS011;6782;55.904;13.396;2023-07-16T15:08:05;3.78;;;2.63;;
13421;SDS011;6782;55.904;13.396;2023-07-16T15:10:52;3.53;;;2.67;;
13421;SDS011;6782;55.904;13.396;2023-07-16T15:13:39;4.95;;;2.67;;
13421;SDS011;6782;55.904;13.396;2023-07-16T15:16:33;3.75;;;2.10;;
13421;SDS011;6782;55.904;13.396;2023-07-16T15:19:20;4.10;;;2.45;;
13421;SDS011;6782;55.904;13.396;2023-07-16T15:22:07;3.70;;;2.58;;
13421;SDS011;6782;55.904;13.396;2023-07-16T15:24:55;4.78;;;2.60;;
13421;SDS011;6782;55.904;13.396;2023-07-16T15:27:43;4.85;;;2.90;;
13421;SDS011;6782;55.904;13.396;2023-07-16T15:30:30;3.25;;;2.60;;
13421;SDS011;6782;55.904;13.396;2023-07-16T15:33:19;7.47;;;2.45;;
13421;SDS011;6782;55.904;13.396;2023-07-16T15:36:06;3.00;;;2.30;;
13421;SDS011;6782;55.904;13.396;2023-07-16T15:38:54;3.60;;;2.58;;
13421;SDS011;6782;55.904;13.396;2023-07-16T15:41:42;3.58;;;2.40;;
13421;SDS011;6782;55.904;13.396;2023-07-16T15:44:29;3.13;;;2.35;;
13421;SDS011;6782;55.904;13.396;2023-07-16T15:47:17;3.53;;;2.20;;
13421;SDS011;6782;55.904;13.396;2023-07-16T15:50:06;4.18;;;2.40;;
13421;SDS011;6782;55.904;13.396;2023-07-16T15:52:53;4.53;;;2.40;;
13421;SDS011;6782;55.904;13.396;2023-07-16T15:55:40;3.17;;;2.20;;
13421;SDS011;6782;55.904;13.396;2023-07-16T15:58:29;3.47;;;2.30;;
13421;SDS011;6782;55.904;13.396;2023-07-16T16:01:16;4.80;;;2.40;;
13421;SDS011;6782;55.904;13.396;2023-07-16T16:04:04;4.38;;;2.70;;
13421;SDS011;6782;55.904;13.396;2023-07-16T16:06:53;3.95;;;2.40;;
13421;SDS011;6782;55.904;13.396;2023-07-16T16:09:41;6.05;;;2.88;;
13421;SDS011;6782;55.904;13.396;2023-07-16T16:12:28;4.05;;;2.50;;
13421;SDS011;6782;55.904;13.396;2023-07-16T16:15:15;4.15;;;2.22;;
13421;SDS011;6782;55.904;13.396;2023-07-16T16:18:02;4.72;;;2.70;;
13421;SDS011;6782;55.904;13.396;2023-07-16T16:20:50;4.85;;;2.60;;
13421;SDS011;6782;55.904;13.396;2023-07-16T16:23:39;4.28;;;2.40;;
13421;SDS011;6782;55.904;13.396;2023-07-16T16:26:26;4.72;;;2.38;;
13421;SDS011;6782;55.904;13.396;2023-07-16T16:29:13;3.58;;;2.55;;
13421;SDS011;6782;55.904;13.396;2023-07-16T16:32:01;4.13;;;2.58;;
13421;SDS011;6782;55.904;13.396;2023-07-16T16:34:49;4.40;;;2.40;;
13421;SDS011;6782;55.904;13.396;2023-07-16T16:37:36;3.67;;;2.75;;
13421;SDS011;6782;55.904;13.396;2023-07-16T16:40:25;4.15;;;2.55;;
13421;SDS011;6782;55.904;13.396;2023-07-16T16:43:13;3.72;;;2.72;;
13421;SDS011;6782;55.904;13.396;2023-07-16T16:46:00;4.15;;;2.67;;
13421;SDS011;6782;55.904;13.396;2023-07-16T16:48:48;5.55;;;2.90;;
13421;SDS011;6782;55.904;13.396;2023-07-16T16:51:35;4.88;;;3.00;;
13421;SDS011;6782;55.904;13.396;2023-07-16T16:54:22;4.40;;;2.63;;